Time,TemperatureF,DewpointF,PressureIn,WindDirection,WindDirectionDegrees,WindSpeedMPH,WindSpeedGustMPH,Humidity,HourlyPrecipIn,Conditions,Clouds,dailyrainin,SoftwareType,DateUTC
2013-03-07 00:02:00,32.0,30.0,-100.00,ESE,120,6.0,17.0,90,0.00,,,-99.99,,2013-03-07 05:02:00,
2013-03-07 00:12:00,32.0,30.0,-100.00,SSE,149,5.0,17.0,90,0.00,,,-99.99,,2013-03-07 05:12:00,
2013-03-07 00:22:00,31.0,28.0,-100.00,SSE,149,3.0,17.0,90,0.00,,,-99.99,,2013-03-07 05:22:00,
2013-03-07 00:32:00,34.0,32.0,-100.00,SE,146,4.0,17.0,91,0.00,,,-99.99,,2013-03-07 05:32:00,
2013-03-07 00:42:00,28.0,28.0,-100.00,SE,132,2.0,17.0,93,0.00,,,-99.99,,2013-03-07 05:42:00,
2013-03-07 00:52:00,31.0,30.0,-100.00,SE,129,2.0,17.0,93,0.00,,,-99.99,,2013-03-07 05:52:00,
2013-03-07 01:01:00,31.0,30.0,-100.00,ESE,111,0.0,17.0,93,0.00,,,-99.99,,2013-03-07 06:01:00,
2013-03-07 01:11:00,28.0,28.0,-100.00,ESE,115,0.0,17.0,93,0.00,,,-99.99,,2013-03-07 06:11:00,
2013-03-07 01:22:00,31.0,30.0,-100.00,ESE,114,1.0,17.0,94,0.00,,,-99.99,,2013-03-07 06:22:00,
2013-03-07 01:32:00,29.0,28.0,-100.00,East,97,1.0,17.0,93,0.00,,,-99.99,,2013-03-07 06:32:00,
2013-03-07 01:42:00,29.0,28.0,-100.00,ESE,105,1.0,17.0,94,0.00,,,-99.99,,2013-03-07 06:42:00,
2013-03-07 01:52:00,28.0,27.0,-100.00,ESE,110,2.0,17.0,94,0.00,,,-99.99,,2013-03-07 06:52:00,
2013-03-07 02:01:00,29.0,28.0,-100.00,East,91,1.0,17.0,94,0.00,,,-99.99,,2013-03-07 07:01:00,
2013-03-07 02:11:00,31.0,30.0,-100.00,East,87,1.0,1.0,95,0.00,,,-99.99,,2013-03-07 07:11:00,
2013-03-07 02:22:00,30.0,30.0,-100.00,East,90,2.0,2.0,97,0.00,,,-99.99,,2013-03-07 07:22:00,
2013-03-07 02:43:00,29.0,28.0,-100.00,East,97,2.0,2.0,95,0.00,,,-99.99,,2013-03-07 07:43:00,
2013-03-07 03:03:00,30.0,30.0,-100.00,East,100,2.0,4.0,95,0.00,,,-99.99,,2013-03-07 08:03:00,
2013-03-07 03:12:00,30.0,30.0,-100.00,East,80,2.0,4.0,95,0.00,,,-99.99,,2013-03-07 08:12:00,
2013-03-07 03:23:00,30.0,30.0,-100.00,ENE,76,1.0,4.0,95,0.00,,,-99.99,,2013-03-07 08:23:00,
2013-03-07 03:33:00,30.0,30.0,-100.00,East,94,0.0,4.0,95,0.00,,,-99.99,,2013-03-07 08:33:00,
2013-03-07 03:44:00,31.0,30.0,-100.00,ESE,117,1.0,4.0,95,0.00,,,-99.99,,2013-03-07 08:44:00,
2013-03-07 03:53:00,29.0,28.0,-100.00,ESE,110,2.0,4.0,95,0.00,,,-99.99,,2013-03-07 08:53:00,
2013-03-07 04:03:00,29.0,28.0,-100.00,ESE,105,2.0,4.0,95,0.00,,,-99.99,,2013-03-07 09:03:00,
2013-03-07 04:13:00,31.0,30.0,-100.00,ENE,64,2.0,4.0,94,0.00,,,-99.99,,2013-03-07 09:13:00,
2013-03-07 04:24:00,30.0,30.0,-100.00,ESE,117,2.0,4.0,94,0.00,,,-99.99,,2013-03-07 09:24:00,
2013-03-07 04:33:00,31.0,30.0,-100.00,ENE,66,1.0,4.0,94,0.00,,,-99.99,,2013-03-07 09:33:00,
2013-03-07 04:43:00,33.0,32.0,-100.00,SE,125,1.0,4.0,94,0.00,,,-99.99,,2013-03-07 09:43:00,
2013-03-07 04:52:00,32.0,32.0,-100.00,SSE,149,1.0,4.0,94,0.00,,,-99.99,,2013-03-07 09:52:00,
2013-03-07 05:04:00,32.0,32.0,-100.00,East,80,0.0,4.0,94,0.00,,,-99.99,,2013-03-07 10:04:00,
2013-03-07 05:13:00,28.0,28.0,-100.00,ENE,69,0.0,4.0,94,0.00,,,-99.99,,2013-03-07 10:13:00,
2013-03-07 05:24:00,32.0,32.0,-100.00,East,100,2.0,4.0,93,0.00,,,-99.99,,2013-03-07 10:24:00,
2013-03-07 05:33:00,29.0,28.0,-100.00,East,87,2.0,4.0,94,0.00,,,-99.99,,2013-03-07 10:33:00,
2013-03-07 05:43:00,29.0,28.0,-100.00,East,94,1.0,4.0,94,0.00,,,-99.99,,2013-03-07 10:43:00,
2013-03-07 05:52:00,29.0,28.0,-100.00,East,93,2.0,4.0,94,0.00,,,-99.99,,2013-03-07 10:52:00,
2013-03-07 06:03:00,30.0,30.0,-100.00,East,96,2.0,4.0,94,0.00,,,-99.99,,2013-03-07 11:03:00,
2013-03-07 06:12:00,33.0,32.0,-100.00,ENE,77,2.0,4.0,94,0.00,,,-99.99,,2013-03-07 11:12:00,
2013-03-07 06:23:00,31.0,30.0,-100.00,ESE,103,2.0,4.0,93,0.00,,,-99.99,,2013-03-07 11:23:00,
2013-03-07 06:33:00,30.0,30.0,-100.00,East,81,2.0,4.0,94,0.00,,,-99.99,,2013-03-07 11:33:00,
2013-03-07 06:43:00,30.0,28.0,-100.00,East,83,2.0,4.0,93,0.00,,,-99.99,,2013-03-07 11:43:00,
2013-03-07 06:53:00,34.0,32.0,-100.00,ENE,73,2.0,4.0,94,0.00,,,-99.99,,2013-03-07 11:53:00,
2013-03-07 07:03:00,33.0,32.0,-100.00,East,87,2.0,4.0,93,0.00,,,-99.99,,2013-03-07 12:03:00,
2013-03-07 07:12:00,29.0,28.0,-100.00,East,97,3.0,4.0,94,0.00,,,-99.99,,2013-03-07 12:12:00,
2013-03-07 07:23:00,28.0,28.0,-100.00,East,93,2.0,4.0,94,0.00,,,-99.99,,2013-03-07 12:23:00,
2013-03-07 07:33:00,29.0,28.0,-100.00,SE,144,2.0,4.0,93,0.00,,,-99.99,,2013-03-07 12:33:00,
2013-03-07 07:43:00,29.0,28.0,-100.00,SE,124,2.0,4.0,93,0.00,,,-99.99,,2013-03-07 12:43:00,
2013-03-07 07:52:00,30.0,30.0,-100.00,ESE,107,2.0,4.0,93,0.00,,,-99.99,,2013-03-07 12:52:00,
2013-03-07 08:03:00,32.0,30.0,-100.00,SE,129,2.0,4.0,93,0.00,,,-99.99,,2013-03-07 13:03:00,
2013-03-07 08:12:00,31.0,30.0,-100.00,ESE,111,1.0,4.0,93,0.00,,,-99.99,,2013-03-07 13:12:00,
2013-03-07 08:23:00,34.0,32.0,-100.00,SE,131,2.0,4.0,93,0.00,,,-99.99,,2013-03-07 13:23:00,
2013-03-07 08:32:00,34.0,32.0,-100.00,East,98,2.0,4.0,94,0.00,,,-99.99,,2013-03-07 13:32:00,
2013-03-07 08:42:00,33.0,32.0,-100.00,ESE,120,2.0,4.0,93,0.00,,,-99.99,,2013-03-07 13:42:00,
2013-03-07 08:53:00,33.0,32.0,-100.00,East,100,2.0,4.0,93,0.55,,,-99.99,,2013-03-07 13:53:00,
2013-03-07 09:02:00,34.0,32.0,-100.00,SE,138,2.0,4.0,93,1.69,,,-99.99,,2013-03-07 14:02:00,
2013-03-07 09:12:00,33.0,32.0,-100.00,ESE,110,2.0,4.0,93,3.39,,,-99.99,,2013-03-07 14:12:00,
2013-03-07 09:23:00,33.0,32.0,-100.00,East,94,2.0,4.0,93,5.67,,,-99.99,,2013-03-07 14:23:00,
2013-03-07 09:33:00,34.0,32.0,-100.00,SE,127,2.0,4.0,94,3.39,,,-99.99,,2013-03-07 14:33:00,
2013-03-07 09:42:00,31.0,30.0,-100.00,East,94,1.0,4.0,93,2.83,,,-99.99,,2013-03-07 14:42:00,
2013-03-07 09:53:00,35.0,32.0,-100.00,ESE,112,2.0,4.0,94,0.00,,,-99.99,,2013-03-07 14:53:00,
2013-03-07 10:03:00,35.0,32.0,-100.00,East,91,2.0,4.0,94,1.69,,,-99.99,,2013-03-07 15:03:00,
2013-03-07 10:23:00,35.0,32.0,-100.00,ESE,117,3.0,4.0,94,0.00,,,-99.99,,2013-03-07 15:23:00,
2013-03-07 10:32:00,35.0,32.0,-100.00,ESE,115,2.0,4.0,94,0.00,,,-99.99,,2013-03-07 15:32:00,
2013-03-07 10:42:00,33.0,32.0,-100.00,SE,128,6.0,8.0,91,0.00,,,-99.99,,2013-03-07 15:42:00,
2013-03-07 10:52:00,33.0,32.0,-100.00,SE,125,7.0,8.0,90,0.00,,,-99.99,,2013-03-07 15:52:00,
2013-03-07 11:02:00,34.0,32.0,-100.00,SE,129,7.0,8.0,90,0.00,,,-99.99,,2013-03-07 16:02:00,
2013-03-07 11:13:00,33.0,30.0,-100.00,SSE,152,7.0,8.0,89,0.00,,,-99.99,,2013-03-07 16:13:00,
2013-03-07 11:24:00,34.0,32.0,-100.00,SE,136,7.0,10.0,88,0.00,,,-99.99,,2013-03-07 16:24:00,
2013-03-07 11:33:00,34.0,32.0,-100.00,SE,129,7.0,10.0,88,0.00,,,-99.99,,2013-03-07 16:33:00,
2013-03-07 11:43:00,35.0,32.0,-100.00,SSE,148,5.0,10.0,86,0.00,,,-99.99,,2013-03-07 16:43:00,
2013-03-07 11:52:00,35.0,32.0,-100.00,SE,125,5.0,10.0,86,0.00,,,-99.99,,2013-03-07 16:52:00,
2013-03-07 12:02:00,36.0,32.0,-100.00,East,101,5.0,10.0,85,0.00,,,-99.99,,2013-03-07 17:02:00,
2013-03-07 12:12:00,35.0,32.0,-100.00,SSE,148,9.0,12.0,84,0.00,,,-99.99,,2013-03-07 17:12:00,
2013-03-07 12:23:00,38.0,34.0,-100.00,SSE,153,6.0,12.0,86,0.00,,,-99.99,,2013-03-07 17:23:00,
2013-03-07 12:33:00,36.0,32.0,-100.00,SE,145,6.0,12.0,82,0.00,,,-99.99,,2013-03-07 17:33:00,
2013-03-07 12:43:00,36.0,30.0,-100.00,SSE,162,7.0,12.0,80,0.00,,,-99.99,,2013-03-07 17:43:00,
2013-03-07 12:53:00,37.0,30.0,-100.00,SE,142,6.0,12.0,77,0.00,,,-99.99,,2013-03-07 17:53:00,
2013-03-07 13:04:00,38.0,32.0,-100.00,SE,124,6.0,12.0,76,0.00,,,-99.99,,2013-03-07 18:04:00,
2013-03-07 13:13:00,37.0,32.0,-100.00,SSE,153,9.0,12.0,78,0.00,,,-99.99,,2013-03-07 18:13:00,
2013-03-07 13:22:00,38.0,30.0,-100.00,SSE,148,7.0,12.0,73,0.00,,,-99.99,,2013-03-07 18:22:00,
2013-03-07 13:32:00,38.0,32.0,-100.00,SSE,162,8.0,12.0,75,0.00,,,-99.99,,2013-03-07 18:32:00,
2013-03-07 13:42:00,39.0,32.0,-100.00,SE,144,7.0,12.0,78,0.00,,,-99.99,,2013-03-07 18:42:00,
2013-03-07 13:52:00,38.0,32.0,-100.00,SE,146,8.0,12.0,75,0.00,,,-99.99,,2013-03-07 18:52:00,
2013-03-07 14:03:00,40.0,32.0,-100.00,East,93,7.0,12.0,69,0.00,,,-99.99,,2013-03-07 19:03:00,
2013-03-07 14:12:00,40.0,32.0,-100.00,ESE,115,7.0,12.0,71,0.00,,,-99.99,,2013-03-07 19:12:00,
2013-03-07 14:24:00,38.0,32.0,-100.00,SE,144,8.0,12.0,73,0.00,,,-99.99,,2013-03-07 19:24:00,
2013-03-07 14:35:00,37.0,30.0,-100.00,SE,129,7.0,12.0,75,0.00,,,-99.99,,2013-03-07 19:35:00,
2013-03-07 14:43:00,38.0,32.0,-100.00,SSW,196,7.0,12.0,77,0.00,,,-99.99,,2013-03-07 19:43:00,
2013-03-07 14:52:00,38.0,32.0,-100.00,SE,134,6.0,12.0,78,0.00,,,-99.99,,2013-03-07 19:52:00,
2013-03-07 15:02:00,42.0,34.0,-100.00,SSE,148,6.0,12.0,75,0.00,,,-99.99,,2013-03-07 20:02:00,
2013-03-07 15:13:00,42.0,32.0,-100.00,SSE,156,7.0,12.0,64,0.00,,,-99.99,,2013-03-07 20:13:00,
2013-03-07 15:22:00,41.0,32.0,-100.00,South,169,8.0,12.0,69,0.00,,,-99.99,,2013-03-07 20:22:00,
2013-03-07 15:43:00,39.0,32.0,-100.00,South,169,6.0,12.0,73,0.00,,,-99.99,,2013-03-07 20:43:00,
2013-03-07 15:53:00,40.0,32.0,-100.00,SSE,162,7.0,12.0,73,0.00,,,-99.99,,2013-03-07 20:53:00,
2013-03-07 16:03:00,41.0,32.0,-100.00,SSE,152,6.0,12.0,75,0.00,,,-99.99,,2013-03-07 21:03:00,
2013-03-07 16:12:00,41.0,32.0,-100.00,South,177,7.0,12.0,75,0.00,,,-99.99,,2013-03-07 21:12:00,
2013-03-07 16:23:00,42.0,34.0,-100.00,South,180,8.0,12.0,73,0.00,,,-99.99,,2013-03-07 21:23:00,
2013-03-07 16:33:00,40.0,32.0,-100.00,SSE,153,9.0,12.0,73,0.00,,,-99.99,,2013-03-07 21:33:00,
2013-03-07 16:43:00,40.0,32.0,-100.00,SSE,151,6.0,12.0,73,0.00,,,-99.99,,2013-03-07 21:43:00,
2013-03-07 16:52:00,40.0,32.0,-100.00,SSE,166,6.0,12.0,73,0.00,,,-99.99,,2013-03-07 21:52:00,
2013-03-07 17:02:00,40.0,32.0,-100.00,SSE,160,6.0,12.0,71,0.00,,,-99.99,,2013-03-07 22:02:00,
2013-03-07 17:12:00,40.0,32.0,-100.00,SSE,160,5.0,12.0,72,0.00,,,-99.99,,2013-03-07 22:12:00,
2013-03-07 17:23:00,39.0,30.0,-100.00,SSE,148,8.0,12.0,71,0.00,,,-99.99,,2013-03-07 22:23:00,
2013-03-07 17:33:00,39.0,32.0,-100.00,SSE,166,8.0,12.0,73,0.00,,,-99.99,,2013-03-07 22:33:00,
2013-03-07 17:43:00,36.0,28.0,-100.00,SSE,149,9.0,12.0,73,0.00,,,-99.99,,2013-03-07 22:43:00,
2013-03-07 17:53:00,39.0,32.0,-100.00,SSE,156,7.0,12.0,76,0.00,,,-99.99,,2013-03-07 22:53:00,
2013-03-07 18:03:00,40.0,32.0,-100.00,SSE,156,6.0,12.0,76,0.00,,,-99.99,,2013-03-07 23:03:00,
2013-03-07 18:13:00,38.0,32.0,-100.00,SSE,158,6.0,12.0,77,0.00,,,-99.99,,2013-03-07 23:13:00,
2013-03-07 18:22:00,37.0,32.0,-100.00,South,179,4.0,12.0,78,0.00,,,-99.99,,2013-03-07 23:22:00,
2013-03-07 18:34:00,37.0,32.0,-100.00,SSE,162,6.0,12.0,77,0.00,,,-99.99,,2013-03-07 23:34:00,
2013-03-07 18:43:00,38.0,32.0,-100.00,South,175,4.0,12.0,78,0.00,,,-99.99,,2013-03-07 23:43:00,
2013-03-07 18:53:00,38.0,32.0,-100.00,South,179,3.0,12.0,80,0.00,,,-99.99,,2013-03-07 23:53:00,
2013-03-07 19:04:00,36.0,32.0,-100.00,SSE,159,1.0,12.0,81,0.00,,,-99.99,,2013-03-08 00:04:00,
2013-03-07 19:13:00,36.0,32.0,-100.00,SSE,160,2.0,12.0,80,0.00,,,-99.99,,2013-03-08 00:13:00,
2013-03-07 19:23:00,36.0,32.0,-100.00,SSE,156,7.0,12.0,80,0.00,,,-99.99,,2013-03-08 00:23:00,
2013-03-07 19:34:00,36.0,32.0,-100.00,South,179,4.0,12.0,81,0.00,,,-99.99,,2013-03-08 00:34:00,
2013-03-07 19:44:00,37.0,32.0,-100.00,South,169,5.0,12.0,82,0.00,,,-99.99,,2013-03-08 00:44:00,
2013-03-07 19:53:00,36.0,32.0,-100.00,South,190,6.0,12.0,82,0.00,,,-99.99,,2013-03-08 00:53:00,
2013-03-07 20:02:00,35.0,32.0,-100.00,South,175,5.0,12.0,84,0.00,,,-99.99,,2013-03-08 01:02:00,
2013-03-07 20:11:00,35.0,32.0,-100.00,SSW,206,3.0,12.0,84,0.00,,,-99.99,,2013-03-08 01:11:00,
2013-03-07 20:22:00,34.0,30.0,-100.00,SW,225,3.0,12.0,84,0.00,,,-99.99,,2013-03-08 01:22:00,
2013-03-07 20:33:00,33.0,28.0,-100.00,SSW,194,3.0,12.0,82,0.00,,,-99.99,,2013-03-08 01:33:00,
2013-03-07 20:42:00,35.0,30.0,-100.00,SSW,206,3.0,12.0,81,0.00,,,-99.99,,2013-03-08 01:42:00,
2013-03-07 20:52:00,35.0,30.0,-100.00,SSW,206,3.0,12.0,81,0.00,,,-99.99,,2013-03-08 01:52:00,
2013-03-07 21:02:00,37.0,32.0,-100.00,South,182,3.0,12.0,82,0.00,,,-99.99,,2013-03-08 02:02:00,
2013-03-07 21:12:00,34.0,30.0,-100.00,SSE,159,2.0,12.0,85,0.00,,,-99.99,,2013-03-08 02:12:00,
2013-03-07 21:22:00,34.0,30.0,-100.00,SSE,153,2.0,12.0,85,0.00,,,-99.99,,2013-03-08 02:22:00,
2013-03-07 21:32:00,35.0,32.0,-100.00,SSE,165,1.0,12.0,86,0.00,,,-99.99,,2013-03-08 02:32:00,
2013-03-07 21:42:00,34.0,30.0,-100.00,SSE,159,2.0,12.0,86,0.00,,,-99.99,,2013-03-08 02:42:00,
2013-03-07 21:52:00,34.0,32.0,-100.00,SSE,159,2.0,12.0,88,0.00,,,-99.99,,2013-03-08 02:52:00,
2013-03-07 22:02:00,33.0,30.0,-100.00,SE,145,2.0,12.0,88,0.00,,,-99.99,,2013-03-08 03:02:00,
2013-03-07 22:12:00,31.0,28.0,-100.00,South,186,2.0,12.0,88,0.00,,,-99.99,,2013-03-08 03:12:00,
2013-03-07 22:22:00,32.0,30.0,-100.00,South,184,2.0,12.0,88,0.00,,,-99.99,,2013-03-08 03:22:00,
2013-03-07 22:33:00,34.0,32.0,-100.00,SSW,197,2.0,12.0,89,0.00,,,-99.99,,2013-03-08 03:33:00,
2013-03-07 22:43:00,34.0,32.0,-100.00,SSE,152,2.0,12.0,89,0.55,,,-99.99,,2013-03-08 03:43:00,
2013-03-07 22:52:00,34.0,32.0,-100.00,South,180,4.0,12.0,90,1.14,,,-99.99,,2013-03-08 03:52:00,
2013-03-07 23:02:00,33.0,32.0,-100.00,SSE,168,2.0,12.0,90,0.00,,,-99.99,,2013-03-08 04:02:00,
2013-03-07 23:12:00,31.0,30.0,-100.00,SE,145,2.0,12.0,90,0.00,,,-99.99,,2013-03-08 04:12:00,
2013-03-07 23:22:00,34.0,32.0,-100.00,SSW,199,2.0,12.0,91,1.69,,,-99.99,,2013-03-08 04:22:00,
2013-03-07 23:32:00,33.0,32.0,-100.00,South,190,2.0,12.0,91,1.14,,,-99.99,,2013-03-08 04:32:00,
2013-03-07 23:42:00,32.0,32.0,-100.00,SE,146,2.0,12.0,93,1.14,,,-99.99,,2013-03-08 04:42:00,
2013-03-07 23:52:00,35.0,32.0,-100.00,SSE,152,2.0,12.0,94,1.14,,,-99.99,,2013-03-08 04:52:00,